Impacts METAR Board
IDs:

KCFD - Bryan/Coulter Fld, TX, US

Updated at: 0400 UTC 06 Dec 2019
Potential Impact None Slight Moderate High
Time 05/16Z 05/17Z 05/18Z 05/19Z 05/20Z 05/21Z 05/22Z 05/23Z 06/00Z 06/01Z 06/02Z 06/03Z 06/04Z
Temp63 68 72 75 74 75 75 73 71 70 69 68 67
Dewpt53 57 61 61 61 60 60 60 60 61 60 60 62
Altim30.09 30.08 30.05 30.00 29.98 29.96 29.96 29.95 29.96 29.96 29.98 29.99 30.00
VIS10 10 10 10 10 10 10 10 10 10 10 10 10
CIG10 27 25 29 33 -- -- -- -- -- -- -- --
CoverOVCOVCBKNOVCBKNSCTSCTCLRCLRCLRCLRCLRCLR
FltCatMVFRMVFRMVFRMVFRVFRVFRVFRVFRVFRVFRVFRVFRVFR
WX--------------------------
WDir130160200180190170200180170170170170
WSpd6 8 10 13 12 11 9 10 6 8 9 8
WGst-- -- 16 16 18 18 15 14 -- -- -- -- --
Raw hourly METARs
KCFD 051555Z AUTO 13006KT 10SM OVC010 17/12 A3009 RMK AO2 T01720117
KCFD 051655Z AUTO 16008KT 10SM SCT019 OVC027 20/14 A3008 RMK AO2 T02020141
KCFD 051755Z AUTO 20010G16KT 10SM BKN025 22/16 A3005 RMK AO2 T02240159 10224 20094
KCFD 051855Z AUTO 18013G16KT 10SM OVC029 24/16 A3000 RMK AO2 T02390159
KCFD 051955Z AUTO 19012G18KT 10SM BKN033 24/16 A2998 RMK AO2 T02350159
KCFD 052055Z AUTO 17011G18KT 10SM SCT035 24/16 A2996 RMK AO2 T02370156
KCFD 052155Z AUTO 20009G15KT 10SM SCT035 24/16 A2996 RMK AO2 T02400157
KCFD 052255Z AUTO 18010G14KT 10SM CLR 23/16 A2995 RMK AO2 T02300156
KCFD 052355Z AUTO 17006KT 10SM CLR 22/16 A2996 RMK AO2 T02160158 10245 20216
KCFD 060055Z AUTO 17008KT 10SM CLR 21/16 A2996 RMK AO2 T02130159
KCFD 060155Z AUTO 17009KT 10SM CLR 21/16 A2998 RMK AO2 T02080156
KCFD 060255Z AUTO 17008KT 10SM CLR 20/16 A2999 RMK AO2 T02010157
KCFD 060355Z AUTO 10SM CLR 20/17 A3000 RMK AO2 T01960166